Time;durP1;ratioP1;P1;durP2;ratioP2;P2;SDS_P1;SDS_P2;PMS_P1;PMS_P2;Temp;Humidity;BMP_temperature;BMP_pressure;BME280_temperature;BME280_humidity;BME280_pressure;Samples;Min_cycle;Max_cycle;Signal;HPM_P1;HPM_P2
2021/06/03 00:02:21;;;;;;;;;;;20.70;20.40;;;;;;5019872;28;19947;-74
2021/06/03 00:04:46;;;;;;;;;;;20.80;20.00;;;;;;5030422;28;19939;-74
2021/06/03 00:07:12;;;;;;;;;;;20.80;21.20;;;;;;5032299;28;19913;-75
2021/06/03 00:09:38;;;;;;;;;;;20.90;22.90;;;;;;5021584;28;19917;-75
2021/06/03 00:12:04;;;;;;;;;;;20.90;23.70;;;;;;5024300;28;19913;-74
2021/06/03 00:14:30;;;;;;;;;;;20.80;24.40;;;;;;5015877;28;19913;-74
2021/06/03 00:16:55;;;;;;;;;;;20.70;25.30;;;;;;5031834;28;19924;-74
2021/06/03 00:19:21;;;;;;;;;;;20.60;27.60;;;;;;5032052;28;20008;-74
2021/06/03 00:21:46;;;;;;;;;;;20.60;27.10;;;;;;5032415;28;19955;-74
2021/06/03 00:24:12;;;;;;;;;;;20.60;27.60;;;;;;5032208;28;20382;-73
2021/06/03 00:26:38;;;;;;;;;;;20.60;28.60;;;;;;5047884;28;19913;-73
2021/06/03 00:29:04;;;;;;;;;;;20.60;27.20;;;;;;5032406;28;19972;-73
2021/06/03 00:31:29;;;;;;;;;;;20.60;27.50;;;;;;5031738;28;20328;-72
2021/06/03 00:33:55;;;;;;;;;;;20.50;27.60;;;;;;5031856;28;19936;-74
2021/06/03 00:36:20;;;;;;;;;;;20.50;28.30;;;;;;5032050;28;19948;-73
2021/06/03 00:38:46;;;;;;;;;;;20.40;28.40;;;;;;5031382;28;20437;-73
2021/06/03 00:41:11;;;;;;;;;;;20.20;28.70;;;;;;5031659;28;19998;-73
2021/06/03 00:43:37;;;;;;;;;;;20.10;28.70;;;;;;5032195;28;20031;-72
2021/06/03 00:46:03;;;;;;;;;;;20.20;28.30;;;;;;5031969;28;19913;-73
2021/06/03 00:48:29;;;;;;;;;;;20.10;28.40;;;;;;5013228;28;20382;-73
2021/06/03 00:50:56;;;;;;;;;;;20.00;28.80;;;;;;5011945;28;20004;-73
2021/06/03 00:53:22;;;;;;;;;;;19.90;28.90;;;;;;5030749;28;19956;-73
2021/06/03 00:55:49;;;;;;;;;;;20.00;28.80;;;;;;5031993;28;20378;-73
2021/06/03 00:58:15;;;;;;;;;;;19.90;28.80;;;;;;5032390;28;20391;-73
2021/06/03 01:00:41;;;;;;;;;;;19.80;29.60;;;;;;5013069;28;19913;-72
2021/06/03 01:03:07;;;;;;;;;;;19.60;30.30;;;;;;5015768;28;19913;-72
2021/06/03 01:05:42;;;;;;;;;;;19.50;30.70;;;;;;5010782;28;19909;-73
2021/06/03 01:08:18;;;;;;;;;;;19.40;31.60;;;;;;5012153;28;19920;-73
2021/06/03 01:10:48;;;;;;;;;;;19.40;31.70;;;;;;5012254;28;19945;-73
2021/06/03 01:13:14;;;;;;;;;;;19.40;32.10;;;;;;5031171;28;20267;-73
2021/06/03 01:15:40;;;;;;;;;;;19.40;31.70;;;;;;5031907;28;20019;-74
2021/06/03 01:18:06;;;;;;;;;;;19.50;31.40;;;;;;5032027;28;20370;-73
2021/06/03 01:20:35;;;;;;;;;;;19.40;31.40;;;;;;5031692;28;19936;-73
2021/06/03 01:23:04;;;;;;;;;;;19.30;32.20;;;;;;5031277;28;19957;-73
2021/06/03 01:25:30;;;;;;;;;;;19.30;32.80;;;;;;5035099;28;20258;-72
2021/06/03 01:27:56;;;;;;;;;;;19.30;32.20;;;;;;5035976;28;19917;-74
2021/06/03 01:30:24;;;;;;;;;;;19.30;32.00;;;;;;5051080;28;19917;-75
2021/06/03 01:32:52;;;;;;;;;;;19.40;31.40;;;;;;5035455;28;20366;-73
2021/06/03 01:35:19;;;;;;;;;;;19.50;31.20;;;;;;5034177;28;19909;-74
2021/06/03 01:37:45;;;;;;;;;;;19.50;31.30;;;;;;5017107;28;20356;-73
2021/06/03 01:40:12;;;;;;;;;;;19.40;31.50;;;;;;5014427;28;19910;-73
2021/06/03 01:42:38;;;;;;;;;;;19.40;31.90;;;;;;5027377;28;19959;-73
2021/06/03 01:45:04;;;;;;;;;;;19.40;31.90;;;;;;5034659;28;20950;-73
2021/06/03 01:47:30;;;;;;;;;;;19.40;32.10;;;;;;5035440;28;19913;-73
2021/06/03 01:49:56;;;;;;;;;;;19.40;32.10;;;;;;5034730;28;19963;-73
2021/06/03 01:52:21;;;;;;;;;;;19.40;32.50;;;;;;5034182;23;19926;-76
2021/06/03 01:54:47;;;;;;;;;;;19.40;32.80;;;;;;5031103;28;20004;-76
2021/06/03 01:57:13;;;;;;;;;;;19.40;32.90;;;;;;5016198;28;20008;-76
2021/06/03 01:59:38;;;;;;;;;;;19.40;33.70;;;;;;5016010;28;19917;-77
2021/06/03 02:02:04;;;;;;;;;;;19.30;33.50;;;;;;5030237;28;19962;-76
2021/06/03 02:04:30;;;;;;;;;;;19.30;33.50;;;;;;5035660;28;19945;-76
2021/06/03 02:06:55;;;;;;;;;;;19.30;33.70;;;;;;5034934;28;19957;-78
2021/06/03 02:09:22;;;;;;;;;;;19.30;33.60;;;;;;5035298;28;19920;-76
2021/06/03 02:11:48;;;;;;;;;;;19.40;33.60;;;;;;5035497;28;19925;-75
2021/06/03 02:14:14;;;;;;;;;;;19.30;33.90;;;;;;5016947;28;19916;-76
2021/06/03 02:16:43;;;;;;;;;;;19.30;33.70;;;;;;5018708;28;20402;-76
2021/06/03 02:19:12;;;;;;;;;;;19.30;34.00;;;;;;5031522;28;19975;-76
2021/06/03 02:21:39;;;;;;;;;;;19.30;34.10;;;;;;5037735;28;20274;-75
2021/06/03 02:24:06;;;;;;;;;;;19.30;34.10;;;;;;5019926;28;19909;-76
2021/06/03 02:26:33;;;;;;;;;;;19.30;34.10;;;;;;5016981;28;19913;-77
2021/06/03 02:28:59;;;;;;;;;;;19.20;34.40;;;;;;5016984;28;19932;-75
2021/06/03 02:31:25;;;;;;;;;;;19.20;34.30;;;;;;5034962;28;20336;-76
2021/06/03 02:33:52;;;;;;;;;;;19.20;34.00;;;;;;5034614;28;20003;-77
2021/06/03 02:36:17;;;;;;;;;;;19.20;34.10;;;;;;5022583;28;20005;-77
2021/06/03 02:38:43;;;;;;;;;;;19.20;34.20;;;;;;5015449;28;19996;-77
2021/06/03 02:41:09;;;;;;;;;;;19.10;34.50;;;;;;5033823;28;19960;-76
2021/06/03 02:43:35;;;;;;;;;;;19.00;34.80;;;;;;5034681;28;19948;-77
2021/06/03 02:46:01;;;;;;;;;;;19.00;34.90;;;;;;5034821;28;19946;-76
2021/06/03 02:48:27;;;;;;;;;;;19.00;35.00;;;;;;5025284;28;20338;-77
2021/06/03 02:50:53;;;;;;;;;;;19.00;35.30;;;;;;5030922;28;19939;-77
2021/06/03 02:53:18;;;;;;;;;;;19.00;35.50;;;;;;5034459;28;19970;-76
2021/06/03 02:55:44;;;;;;;;;;;19.00;35.00;;;;;;5034506;28;19963;-77
2021/06/03 02:58:10;;;;;;;;;;;19.00;35.00;;;;;;5034624;28;19916;-77
2021/06/03 03:00:36;;;;;;;;;;;18.90;35.40;;;;;;5030723;28;20394;-77
2021/06/03 03:03:03;;;;;;;;;;;18.90;35.40;;;;;;5034106;28;19917;-77
2021/06/03 03:05:29;;;;;;;;;;;18.90;35.20;;;;;;5034136;28;19920;-77
2021/06/03 03:07:55;;;;;;;;;;;18.90;35.60;;;;;;5033226;28;19909;-77
2021/06/03 03:10:25;;;;;;;;;;;18.80;35.40;;;;;;5034017;28;19920;-76
2021/06/03 03:12:50;;;;;;;;;;;18.80;35.40;;;;;;5033343;28;19913;-75
2021/06/03 03:15:16;;;;;;;;;;;18.80;35.10;;;;;;5034230;28;19909;-77
2021/06/03 03:17:42;;;;;;;;;;;18.90;35.00;;;;;;5034250;28;19909;-75
2021/06/03 03:20:08;;;;;;;;;;;18.90;35.00;;;;;;5035456;28;20298;-79
2021/06/03 03:22:33;;;;;;;;;;;18.90;34.90;;;;;;5027817;28;19941;-77
2021/06/03 03:24:59;;;;;;;;;;;18.80;35.10;;;;;;5023551;28;19917;-75
2021/06/03 03:27:24;;;;;;;;;;;18.90;34.70;;;;;;5013734;28;19921;-76
2021/06/03 03:29:50;;;;;;;;;;;18.80;35.00;;;;;;5022088;28;19913;-76
2021/06/03 03:32:15;;;;;;;;;;;18.80;35.10;;;;;;5042091;28;19909;-75
2021/06/03 03:34:41;;;;;;;;;;;18.70;35.30;;;;;;5052521;28;19909;-75
2021/06/03 03:37:06;;;;;;;;;;;18.70;35.30;;;;;;5035577;28;19913;-75
2021/06/03 03:39:32;;;;;;;;;;;18.70;35.70;;;;;;5029399;28;19913;-74
2021/06/03 03:41:57;;;;;;;;;;;18.70;35.90;;;;;;5035482;28;19940;-77
2021/06/03 03:44:23;;;;;;;;;;;18.70;36.10;;;;;;5031564;28;19996;-74
2021/06/03 03:46:48;;;;;;;;;;;18.60;35.70;;;;;;5016165;28;19964;-74
2021/06/03 03:49:14;;;;;;;;;;;18.60;36.00;;;;;;5018558;28;19909;-76
2021/06/03 03:51:39;;;;;;;;;;;18.60;36.40;;;;;;5035137;28;20011;-76
2021/06/03 03:54:05;;;;;;;;;;;18.60;36.50;;;;;;5017685;28;20362;-76
2021/06/03 03:56:30;;;;;;;;;;;18.60;36.10;;;;;;5014885;28;20104;-77
2021/06/03 03:58:58;;;;;;;;;;;18.60;36.00;;;;;;5014096;28;20012;-75
2021/06/03 04:01:24;;;;;;;;;;;18.60;36.20;;;;;;5032983;28;19913;-76
2021/06/03 04:03:49;;;;;;;;;;;18.60;36.20;;;;;;5032022;28;19916;-75
2021/06/03 04:06:15;;;;;;;;;;;18.60;35.90;;;;;;5033464;28;19913;-76
2021/06/03 04:08:40;;;;;;;;;;;18.70;35.80;;;;;;5031955;28;19946;-76
2021/06/03 04:11:06;;;;;;;;;;;18.70;35.70;;;;;;5022229;28;20393;-75
2021/06/03 04:13:31;;;;;;;;;;;18.70;35.30;;;;;;5026414;28;19920;-76
2021/06/03 04:15:58;;;;;;;;;;;18.70;35.50;;;;;;5033158;28;19959;-76
2021/06/03 04:18:23;;;;;;;;;;;18.70;35.90;;;;;;5027792;28;20374;-75
2021/06/03 04:20:49;;;;;;;;;;;18.70;36.00;;;;;;5027377;28;19920;-76
2021/06/03 04:23:14;;;;;;;;;;;18.70;35.80;;;;;;5013127;28;19909;-76
2021/06/03 04:25:40;;;;;;;;;;;18.70;35.60;;;;;;5011954;28;19909;-76
2021/06/03 04:28:06;;;;;;;;;;;18.70;35.80;;;;;;5013442;28;20386;-75
2021/06/03 04:30:32;;;;;;;;;;;18.80;35.70;;;;;;5024465;28;19916;-74
2021/06/03 04:32:58;;;;;;;;;;;18.80;35.50;;;;;;5032717;28;20306;-75
2021/06/03 04:35:25;;;;;;;;;;;19.00;34.60;;;;;;5031373;28;19909;-75
2021/06/03 04:37:52;;;;;;;;;;;19.10;34.50;;;;;;5032691;28;20277;-75
2021/06/03 04:40:19;;;;;;;;;;;19.10;34.30;;;;;;5032407;28;19913;-75
2021/06/03 04:42:45;;;;;;;;;;;19.20;34.40;;;;;;5030664;28;19919;-76
2021/06/03 04:45:12;;;;;;;;;;;19.30;33.70;;;;;;5032538;28;20336;-76
2021/06/03 04:47:38;;;;;;;;;;;19.30;33.50;;;;;;5030842;28;19917;-76
2021/06/03 04:50:04;;;;;;;;;;;19.40;33.10;;;;;;5012425;28;19956;-75
2021/06/03 04:52:30;;;;;;;;;;;19.50;32.70;;;;;;5017200;28;19917;-75
2021/06/03 04:54:57;;;;;;;;;;;19.60;32.60;;;;;;5012356;28;19971;-76
2021/06/03 04:57:22;;;;;;;;;;;19.70;32.00;;;;;;5012075;28;19996;-76
2021/06/03 04:59:48;;;;;;;;;;;19.90;31.20;;;;;;5012627;28;19960;-75
2021/06/03 05:02:13;;;;;;;;;;;20.10;30.50;;;;;;5012630;28;19913;-76
2021/06/03 05:04:39;;;;;;;;;;;20.30;29.60;;;;;;5012656;28;19914;-76
2021/06/03 05:07:05;;;;;;;;;;;20.40;29.20;;;;;;5024017;28;19917;-76
2021/06/03 05:09:30;;;;;;;;;;;20.60;29.00;;;;;;5032180;28;20401;-75
2021/06/03 05:11:56;;;;;;;;;;;20.60;28.80;;;;;;5025810;28;19913;-76
2021/06/03 05:14:21;;;;;;;;;;;20.70;28.90;;;;;;5033423;28;20431;-76
2021/06/03 05:16:46;;;;;;;;;;;20.70;28.40;;;;;;5033108;28;20333;-75
2021/06/03 05:19:12;;;;;;;;;;;20.70;28.20;;;;;;5033768;28;19909;-75
2021/06/03 05:21:37;;;;;;;;;;;20.70;28.40;;;;;;5049019;28;19959;-74
2021/06/03 05:24:03;;;;;;;;;;;20.70;28.60;;;;;;5031695;28;19917;-75
2021/06/03 05:26:29;;;;;;;;;;;20.60;28.90;;;;;;5032576;28;20408;-75
2021/06/03 05:28:54;;;;;;;;;;;20.60;29.10;;;;;;5032147;28;19999;-75
2021/06/03 05:31:20;;;;;;;;;;;20.50;29.30;;;;;;5014706;28;20374;-75
2021/06/03 05:33:45;;;;;;;;;;;20.60;29.30;;;;;;5013428;28;19921;-75
2021/06/03 05:36:11;;;;;;;;;;;20.60;29.40;;;;;;5012554;28;20246;-74
2021/06/03 05:38:36;;;;;;;;;;;20.50;29.60;;;;;;5024311;28;19959;-76
2021/06/03 05:41:02;;;;;;;;;;;20.50;29.80;;;;;;5031197;28;19909;-74
2021/06/03 05:43:27;;;;;;;;;;;20.50;30.00;;;;;;5012397;28;19929;-75
2021/06/03 05:45:53;;;;;;;;;;;20.70;29.60;;;;;;5012145;28;19914;-75
2021/06/03 05:48:18;;;;;;;;;;;20.80;29.60;;;;;;5012280;28;19910;-75
2021/06/03 05:50:44;;;;;;;;;;;20.90;29.20;;;;;;5012128;28;20001;-75
2021/06/03 05:53:09;;;;;;;;;;;21.00;28.90;;;;;;5026844;28;19921;-76
2021/06/03 05:55:34;;;;;;;;;;;21.20;28.60;;;;;;5031843;28;19913;-75
2021/06/03 05:58:00;;;;;;;;;;;21.30;28.30;;;;;;5032190;28;20011;-75
2021/06/03 06:00:29;;;;;;;;;;;21.40;27.80;;;;;;5032023;28;19909;-75
2021/06/03 06:03:11;;;;;;;;;;;21.60;27.30;;;;;;5031667;28;19910;-76
2021/06/03 06:08:21;;;;;;;;;;;21.80;26.70;;;;;;5032306;28;20388;-75
2021/06/03 06:10:46;;;;;;;;;;;21.90;26.70;;;;;;5025368;28;19913;-75
2021/06/03 06:13:12;;;;;;;;;;;21.80;26.80;;;;;;5026561;28;19913;-75
2021/06/03 06:15:38;;;;;;;;;;;21.80;27.00;;;;;;5035822;28;19920;-75
2021/06/03 06:18:04;;;;;;;;;;;21.80;27.30;;;;;;5035544;28;19909;-76
2021/06/03 06:20:30;;;;;;;;;;;21.80;27.20;;;;;;5036027;28;19979;-74
2021/06/03 06:22:57;;;;;;;;;;;22.00;26.90;;;;;;5029041;28;19921;-75
2021/06/03 06:25:22;;;;;;;;;;;22.20;26.30;;;;;;5031378;28;19913;-75
2021/06/03 06:27:48;;;;;;;;;;;22.30;26.10;;;;;;5028799;28;20251;-76
2021/06/03 06:30:14;;;;;;;;;;;22.50;25.60;;;;;;5032934;28;19960;-76
2021/06/03 06:32:40;;;;;;;;;;;22.70;25.50;;;;;;5032937;28;19948;-77
2021/06/03 06:35:06;;;;;;;;;;;22.60;25.30;;;;;;5031895;28;19967;-77
2021/06/03 06:37:32;;;;;;;;;;;22.60;25.30;;;;;;5025026;28;19910;-77
2021/06/03 06:39:58;;;;;;;;;;;22.60;25.20;;;;;;5033482;28;19917;-76
2021/06/03 06:42:24;;;;;;;;;;;22.60;25.40;;;;;;5034734;28;20325;-77
2021/06/03 06:44:50;;;;;;;;;;;22.70;25.20;;;;;;5034403;28;19913;-78
2021/06/03 06:47:15;;;;;;;;;;;23.00;24.50;;;;;;5022188;28;20489;-81
2021/06/03 06:49:41;;;;;;;;;;;23.40;23.90;;;;;;5019989;28;19909;-82
2021/06/03 06:52:06;;;;;;;;;;;23.60;23.20;;;;;;5018092;28;19982;-82
2021/06/03 06:54:32;;;;;;;;;;;23.80;22.60;;;;;;5026801;28;19913;-83
2021/06/03 06:56:57;;;;;;;;;;;23.90;22.40;;;;;;5027943;28;20290;-81
2021/06/03 06:59:23;;;;;;;;;;;24.00;22.40;;;;;;5030585;28;20378;-79
2021/06/03 07:01:49;;;;;;;;;;;24.10;22.20;;;;;;5041981;28;19913;-79
2021/06/03 07:04:14;;;;;;;;;;;24.20;22.10;;;;;;5033999;28;20329;-80
2021/06/03 07:06:40;;;;;;;;;;;24.30;21.70;;;;;;5035269;28;19924;-78
2021/06/03 07:09:05;;;;;;;;;;;24.40;22.50;;;;;;5035818;28;19948;-77
2021/06/03 07:11:31;;;;;;;;;;;24.50;22.00;;;;;;5038634;28;19913;-78
2021/06/03 07:13:56;;;;;;;;;;;24.40;22.50;;;;;;5025439;28;19913;-75
2021/06/03 07:16:22;;;;;;;;;;;24.40;23.80;;;;;;5034419;28;20439;-75
2021/06/03 07:18:47;;;;;;;;;;;24.30;24.30;;;;;;5032381;28;19913;-75
2021/06/03 07:21:12;;;;;;;;;;;24.30;25.20;;;;;;5015896;28;20362;-75
2021/06/03 07:23:38;;;;;;;;;;;24.20;24.80;;;;;;5036388;28;19924;-80
2021/06/03 07:26:03;;;;;;;;;;;24.10;25.80;;;;;;5043328;28;19925;-77
2021/06/03 07:28:29;;;;;;;;;;;24.00;25.40;;;;;;5046458;28;19913;-77
2021/06/03 07:30:54;;;;;;;;;;;24.00;25.70;;;;;;5030313;28;19922;-78
2021/06/03 07:33:20;;;;;;;;;;;23.90;27.00;;;;;;5042475;28;19917;-78
2021/06/03 07:35:45;;;;;;;;;;;24.00;28.10;;;;;;5028171;28;20377;-77
2021/06/03 07:38:11;;;;;;;;;;;24.10;28.80;;;;;;5032953;28;19913;-77
2021/06/03 07:40:38;;;;;;;;;;;24.30;28.10;;;;;;5034395;28;19917;-76
2021/06/03 07:43:05;;;;;;;;;;;24.40;27.80;;;;;;5034077;28;19913;-79
2021/06/03 07:45:31;;;;;;;;;;;24.40;28.00;;;;;;5026668;28;19913;-76
2021/06/03 07:47:57;;;;;;;;;;;24.40;28.30;;;;;;5032133;28;19918;-76
2021/06/03 07:50:24;;;;;;;;;;;24.40;28.40;;;;;;5020212;28;19921;-74
2021/06/03 07:52:50;;;;;;;;;;;24.40;29.20;;;;;;5022213;28;20371;-76
2021/06/03 07:55:16;;;;;;;;;;;24.40;28.90;;;;;;5023463;28;19913;-74
2021/06/03 07:57:43;;;;;;;;;;;24.50;28.70;;;;;;5031391;28;19948;-74
2021/06/03 08:00:09;;;;;;;;;;;24.30;28.70;;;;;;5043425;28;19918;-74
2021/06/03 08:02:35;;;;;;;;;;;24.30;30.10;;;;;;5044026;28;19917;-73
2021/06/03 08:05:00;;;;;;;;;;;24.40;30.50;;;;;;5040175;28;19947;-75
2021/06/03 08:07:26;;;;;;;;;;;24.40;30.20;;;;;;5035950;28;19917;-76
2021/06/03 08:09:52;;;;;;;;;;;24.50;30.10;;;;;;5031283;28;19913;-74
2021/06/03 08:12:17;;;;;;;;;;;24.60;30.60;;;;;;5030034;28;19997;-75
2021/06/03 08:14:43;;;;;;;;;;;24.70;30.40;;;;;;5022480;28;19914;-74
2021/06/03 08:17:08;;;;;;;;;;;24.80;31.10;;;;;;5032583;28;19917;-75
2021/06/03 08:19:34;;;;;;;;;;;24.80;30.30;;;;;;5021754;28;19913;-75
2021/06/03 08:21:59;;;;;;;;;;;24.90;30.90;;;;;;5026940;28;19948;-75
2021/06/03 08:24:25;;;;;;;;;;;24.80;30.00;;;;;;5027881;28;19913;-76
2021/06/03 08:26:52;;;;;;;;;;;24.70;30.70;;;;;;5026082;28;20000;-75
2021/06/03 08:29:19;;;;;;;;;;;24.80;30.00;;;;;;5037046;28;19963;-80
2021/06/03 08:31:45;;;;;;;;;;;24.90;30.60;;;;;;5033337;28;19913;-78
2021/06/03 08:34:11;;;;;;;;;;;25.00;29.40;;;;;;5048815;28;19962;-80
2021/06/03 08:36:37;;;;;;;;;;;25.00;28.00;;;;;;5045951;28;19985;-79
2021/06/03 08:39:04;;;;;;;;;;;24.80;28.00;;;;;;5040735;28;20358;-81
2021/06/03 08:41:31;;;;;;;;;;;24.70;29.30;;;;;;5025772;28;19914;-80
2021/06/03 08:43:57;;;;;;;;;;;24.50;29.00;;;;;;5026869;28;19921;-75
2021/06/03 08:46:23;;;;;;;;;;;24.40;29.70;;;;;;5028292;28;20374;-77
2021/06/03 08:48:48;;;;;;;;;;;24.50;31.00;;;;;;5026356;28;19968;-77
2021/06/03 08:51:14;;;;;;;;;;;24.40;30.70;;;;;;5025882;28;20286;-75
2021/06/03 08:53:39;;;;;;;;;;;24.30;31.50;;;;;;5020679;28;19913;-79
2021/06/03 08:56:18;;;;;;;;;;;24.40;31.80;;;;;;5029196;28;20397;-74
2021/06/03 08:58:47;;;;;;;;;;;24.50;31.70;;;;;;5032152;28;20482;-74
2021/06/03 09:01:13;;;;;;;;;;;24.40;31.90;;;;;;5031151;28;20274;-73
2021/06/03 09:03:40;;;;;;;;;;;24.40;32.50;;;;;;5034441;28;20039;-80
2021/06/03 09:06:05;;;;;;;;;;;24.50;33.30;;;;;;5026397;28;19936;-78
2021/06/03 09:08:32;;;;;;;;;;;24.60;33.10;;;;;;5026228;28;19917;-79
2021/06/03 09:11:03;;;;;;;;;;;24.70;31.20;;;;;;5025207;28;19917;-79
2021/06/03 09:13:34;;;;;;;;;;;24.90;31.20;;;;;;5035378;28;19936;-82
2021/06/03 09:16:20;;;;;;;;;;;25.10;31.30;;;;;;5033892;28;20405;-80
2021/06/03 09:18:47;;;;;;;;;;;25.30;30.20;;;;;;5040719;28;19936;-79
2021/06/03 09:21:14;;;;;;;;;;;25.10;28.40;;;;;;5042467;28;19920;-78
2021/06/03 09:23:40;;;;;;;;;;;25.00;28.90;;;;;;5040834;28;19913;-78
2021/06/03 09:26:17;;;;;;;;;;;25.00;29.10;;;;;;5042744;28;19924;-77
2021/06/03 09:28:46;;;;;;;;;;;25.10;28.90;;;;;;5032140;28;19914;-79
2021/06/03 09:31:16;;;;;;;;;;;25.30;28.00;;;;;;5042170;28;19920;-78
2021/06/03 09:33:52;;;;;;;;;;;25.50;28.00;;;;;;5041990;28;20100;-80
2021/06/03 09:36:50;;;;;;;;;;;25.80;27.90;;;;;;5043704;28;19917;-78
2021/06/03 09:39:16;;;;;;;;;;;26.00;26.70;;;;;;5020912;28;19917;-80
2021/06/03 09:41:43;;;;;;;;;;;26.20;26.00;;;;;;5044278;28;19972;-80
2021/06/03 09:44:10;;;;;;;;;;;26.50;26.10;;;;;;5034818;28;19925;-79
2021/06/03 09:46:37;;;;;;;;;;;26.60;24.10;;;;;;5030427;28;19921;-78
2021/06/03 09:49:03;;;;;;;;;;;26.80;23.50;;;;;;5032692;28;19913;-77
2021/06/03 09:51:30;;;;;;;;;;;27.00;23.70;;;;;;5043166;28;19940;-82
2021/06/03 09:53:59;;;;;;;;;;;27.10;23.60;;;;;;5037415;28;19917;-78
2021/06/03 09:56:26;;;;;;;;;;;27.30;22.60;;;;;;5043008;28;20446;-79
2021/06/03 09:58:52;;;;;;;;;;;27.30;22.70;;;;;;5040528;28;19913;-78
2021/06/03 10:01:37;;;;;;;;;;;27.30;23.30;;;;;;5033691;28;19917;-79
2021/06/03 10:04:03;;;;;;;;;;;27.40;22.00;;;;;;5044905;28;19917;-76
2021/06/03 10:06:28;;;;;;;;;;;27.40;22.50;;;;;;5039911;28;19928;-77
2021/06/03 10:08:54;;;;;;;;;;;27.20;23.30;;;;;;5034999;28;19920;-80
2021/06/03 10:11:38;;;;;;;;;;;27.00;24.00;;;;;;5037896;28;19913;-80
2021/06/03 10:14:14;;;;;;;;;;;26.80;24.00;;;;;;5041300;28;20370;-81
2021/06/03 10:16:39;;;;;;;;;;;26.40;25.70;;;;;;5031080;28;19919;-78
2021/06/03 10:19:19;;;;;;;;;;;26.00;28.50;;;;;;5040977;28;19996;-77
2021/06/03 10:21:45;;;;;;;;;;;25.70;30.40;;;;;;5035021;28;20441;-76
2021/06/03 10:24:11;;;;;;;;;;;25.40;32.30;;;;;;5032002;28;20015;-76
2021/06/03 10:27:08;;;;;;;;;;;25.20;33.80;;;;;;5030933;28;20038;-76
2021/06/03 10:29:34;;;;;;;;;;;25.00;35.00;;;;;;4983493;28;20381;-74
2021/06/03 10:32:00;;;;;;;;;;;24.80;37.40;;;;;;5033280;28;19925;-74
2021/06/03 10:34:25;;;;;;;;;;;24.80;38.20;;;;;;5030776;28;19928;-73
2021/06/03 10:36:51;;;;;;;;;;;24.70;39.30;;;;;;5031164;28;20422;-75
2021/06/03 10:39:16;;;;;;;;;;;24.60;39.80;;;;;;5034830;28;19910;-75
2021/06/03 10:41:41;;;;;;;;;;;24.80;41.00;;;;;;5033990;28;20321;-75
2021/06/03 10:44:07;;;;;;;;;;;24.80;41.40;;;;;;5034382;28;19913;-76
2021/06/03 10:46:33;;;;;;;;;;;24.90;41.60;;;;;;5024934;28;19971;-74
2021/06/03 10:48:58;;;;;;;;;;;25.00;41.90;;;;;;5024424;28;19960;-74
2021/06/03 10:51:24;;;;;;;;;;;25.30;39.20;;;;;;5030909;28;19995;-74
2021/06/03 10:53:50;;;;;;;;;;;25.60;37.40;;;;;;5027324;28;19979;-75
2021/06/03 10:56:21;;;;;;;;;;;26.00;34.90;;;;;;5031194;28;19925;-75
2021/06/03 10:58:48;;;;;;;;;;;26.30;33.60;;;;;;5028211;28;19909;-75
2021/06/03 11:01:15;;;;;;;;;;;26.60;32.30;;;;;;5033312;28;19916;-74
2021/06/03 11:03:42;;;;;;;;;;;27.00;32.00;;;;;;5026429;28;20335;-74
2021/06/03 11:06:09;;;;;;;;;;;27.20;30.60;;;;;;5023649;28;19927;-74
2021/06/03 11:08:36;;;;;;;;;;;27.30;30.60;;;;;;5024941;28;19952;-76
2021/06/03 11:11:10;;;;;;;;;;;27.20;30.00;;;;;;5027473;28;20326;-75
2021/06/03 11:13:48;;;;;;;;;;;27.10;30.50;;;;;;5033332;28;19913;-76
2021/06/03 11:16:14;;;;;;;;;;;27.10;30.00;;;;;;5033715;28;20420;-75
2021/06/03 11:18:49;;;;;;;;;;;27.20;29.10;;;;;;5024798;28;20055;-75
2021/06/03 11:24:08;;;;;;;;;;;27.20;28.80;;;;;;5032182;28;19925;-76
2021/06/03 11:26:39;;;;;;;;;;;27.30;28.20;;;;;;5027455;28;19917;-75
2021/06/03 11:29:12;;;;;;;;;;;27.40;24.80;;;;;;5032252;28;20401;-74
2021/06/03 11:31:39;;;;;;;;;;;27.30;25.00;;;;;;5022203;28;20271;-75
2021/06/03 11:34:07;;;;;;;;;;;27.60;24.60;;;;;;5033040;28;20004;-74
2021/06/03 11:36:33;;;;;;;;;;;27.70;25.10;;;;;;5015862;28;20032;-74
2021/06/03 11:38:59;;;;;;;;;;;27.80;25.00;;;;;;5024238;28;20433;-75
2021/06/03 11:41:32;;;;;;;;;;;27.90;23.40;;;;;;5024778;28;19913;-75
2021/06/03 11:44:13;;;;;;;;;;;27.90;21.40;;;;;;5035405;28;19995;-73
2021/06/03 11:46:51;;;;;;;;;;;27.70;21.10;;;;;;5038200;28;20016;-76
2021/06/03 11:49:35;;;;;;;;;;;27.90;21.30;;;;;;5036943;28;19939;-75
2021/06/03 11:52:07;;;;;;;;;;;28.30;20.90;;;;;;5007853;28;772312;-76
2021/06/03 11:54:51;;;;;;;;;;;28.20;21.00;;;;;;5039530;28;19983;-81
2021/06/03 11:57:17;;;;;;;;;;;28.10;21.80;;;;;;5036250;28;19917;-83
2021/06/03 12:00:03;;;;;;;;;;;28.30;21.50;;;;;;5054185;28;19921;-82
2021/06/03 12:02:38;;;;;;;;;;;28.30;21.20;;;;;;5048658;28;19913;-83
2021/06/03 12:05:10;;;;;;;;;;;28.30;20.30;;;;;;5045909;28;19909;-82
2021/06/03 12:07:47;;;;;;;;;;;28.30;20.40;;;;;;5046377;28;19917;-80
2021/06/03 12:10:16;;;;;;;;;;;28.60;20.00;;;;;;5044451;28;19920;-80
2021/06/03 12:12:42;;;;;;;;;;;28.80;19.10;;;;;;5042574;28;19931;-80
2021/06/03 12:15:21;;;;;;;;;;;29.20;19.70;;;;;;5046443;28;20281;-75
2021/06/03 12:17:47;;;;;;;;;;;29.40;19.30;;;;;;5037012;28;20327;-81
2021/06/03 12:20:15;;;;;;;;;;;29.60;18.40;;;;;;5044226;28;19913;-80
2021/06/03 12:22:41;;;;;;;;;;;29.80;17.80;;;;;;5043773;28;19956;-80
2021/06/03 12:25:07;;;;;;;;;;;30.00;18.50;;;;;;5037280;28;19929;-80
2021/06/03 12:27:40;;;;;;;;;;;30.00;18.10;;;;;;5035870;28;19928;-80
2021/06/03 12:30:17;;;;;;;;;;;29.90;16.90;;;;;;5022107;28;20000;-80
2021/06/03 12:33:04;;;;;;;;;;;29.80;17.40;;;;;;5023436;28;19909;-78
2021/06/03 12:35:45;;;;;;;;;;;29.70;18.10;;;;;;5035311;28;19977;-78
2021/06/03 12:38:23;;;;;;;;;;;29.30;19.10;;;;;;5041639;28;19951;-79
2021/06/03 12:40:49;;;;;;;;;;;29.00;19.30;;;;;;5046797;28;20286;-79
2021/06/03 12:43:14;;;;;;;;;;;28.90;18.50;;;;;;5043926;28;19909;-80
2021/06/03 12:45:41;;;;;;;;;;;28.70;18.90;;;;;;5042446;28;19909;-79
2021/06/03 12:48:08;;;;;;;;;;;28.50;19.00;;;;;;5041253;28;19996;-81
2021/06/03 12:50:51;;;;;;;;;;;28.50;19.50;;;;;;5043049;28;19910;-78
2021/06/03 12:53:18;;;;;;;;;;;28.70;18.70;;;;;;5043098;28;19985;-80
2021/06/03 12:55:44;;;;;;;;;;;28.50;19.10;;;;;;5042374;28;19920;-81
2021/06/03 12:58:11;;;;;;;;;;;28.20;18.60;;;;;;5043252;28;19909;-80
2021/06/03 13:00:37;;;;;;;;;;;27.90;19.40;;;;;;5042640;28;19909;-80
2021/06/03 13:03:09;;;;;;;;;;;27.70;20.00;;;;;;5042351;28;19944;-80
2021/06/03 13:05:35;;;;;;;;;;;27.50;20.20;;;;;;5042382;28;19916;-80
2021/06/03 13:08:00;;;;;;;;;;;27.50;20.30;;;;;;5050381;28;19905;-78
2021/06/03 13:10:26;;;;;;;;;;;27.30;21.10;;;;;;5031774;28;20001;-79
2021/06/03 13:12:56;;;;;;;;;;;27.10;21.90;;;;;;5048359;28;19912;-79
2021/06/03 13:15:22;;;;;;;;;;;26.70;22.50;;;;;;5044551;28;20362;-79
2021/06/03 13:17:53;;;;;;;;;;;26.60;22.60;;;;;;5042635;28;19937;-80
2021/06/03 13:20:22;;;;;;;;;;;26.30;23.60;;;;;;5042899;28;20389;-79
2021/06/03 13:22:51;;;;;;;;;;;26.20;24.50;;;;;;5026100;28;20020;-81
2021/06/03 13:25:18;;;;;;;;;;;26.10;22.90;;;;;;5022791;28;19932;-80
2021/06/03 13:27:45;;;;;;;;;;;26.00;23.20;;;;;;5024112;28;19917;-79
2021/06/03 13:30:11;;;;;;;;;;;26.10;23.70;;;;;;5028705;28;19913;-78
2021/06/03 13:32:36;;;;;;;;;;;26.20;24.10;;;;;;5029367;28;19969;-81
2021/06/03 13:35:10;;;;;;;;;;;26.10;24.00;;;;;;5045055;28;19910;-80
2021/06/03 13:37:37;;;;;;;;;;;26.20;24.50;;;;;;5031207;28;19913;-81
2021/06/03 13:40:10;;;;;;;;;;;26.30;24.80;;;;;;5044280;28;19990;-78
2021/06/03 13:42:40;;;;;;;;;;;26.40;25.30;;;;;;5056685;28;19923;-78
2021/06/03 13:45:13;;;;;;;;;;;26.50;25.50;;;;;;5048543;28;19913;-79
2021/06/03 13:47:41;;;;;;;;;;;26.50;25.50;;;;;;5033847;28;19939;-78
2021/06/03 13:50:36;;;;;;;;;;;26.60;25.60;;;;;;5034621;28;20357;-75
2021/06/03 13:53:04;;;;;;;;;;;26.50;26.50;;;;;;5022591;23;19929;-71
2021/06/03 13:55:32;;;;;;;;;;;26.50;27.00;;;;;;5014734;28;19914;-71
2021/06/03 13:57:58;;;;;;;;;;;26.40;27.50;;;;;;5011994;28;19926;-71
2021/06/03 14:00:26;;;;;;;;;;;26.20;28.50;;;;;;5014822;28;20410;-72
2021/06/03 14:02:56;;;;;;;;;;;25.90;28.80;;;;;;5014594;28;19914;-72
2021/06/03 14:05:21;;;;;;;;;;;25.80;30.00;;;;;;5015380;28;19977;-71
2021/06/03 14:08:05;;;;;;;;;;;25.80;30.20;;;;;;5015262;28;19921;-72
2021/06/03 14:10:30;;;;;;;;;;;25.80;30.90;;;;;;5008426;28;20020;-71
2021/06/03 14:13:02;;;;;;;;;;;25.80;31.30;;;;;;5015038;28;19913;-71
2021/06/03 14:15:36;;;;;;;;;;;25.90;31.70;;;;;;5009844;28;20011;-72
2021/06/03 14:18:03;;;;;;;;;;;26.00;31.80;;;;;;5014060;28;20015;-72
2021/06/03 14:20:28;;;;;;;;;;;26.30;33.30;;;;;;5015004;28;19919;-72
2021/06/03 14:22:54;;;;;;;;;;;26.50;31.90;;;;;;5011581;28;19913;-71
2021/06/03 14:25:21;;;;;;;;;;;26.80;30.80;;;;;;5007520;28;19969;-71